Time;durP1;ratioP1;P1;durP2;ratioP2;P2;SDS_P1;SDS_P2;PMS_P1;PMS_P2;Temp;Humidity;BMP_temperature;BMP_pressure;BME280_temperature;BME280_humidity;BME280_pressure;Samples;Min_cycle;Max_cycle;Signal;HPM_P1;HPM_P2
2023/01/30 00:00:08;;;;;;;11.03;4.75;;;;;;;-0.56;61.78;100328.79;1774842;81;21127;-71
2023/01/30 00:02:38;;;;;;;9.15;4.30;;;;;;;-0.57;61.89;100325.24;1774903;81;21143;-72
2023/01/30 00:05:09;;;;;;;11.57;5.22;;;;;;;-0.56;61.91;100328.79;1774437;81;21115;-69
2023/01/30 00:07:38;;;;;;;22.95;5.92;;;;;;;-0.56;62.00;100323.41;1774765;81;21152;-72
2023/01/30 00:10:10;;;;;;;8.03;4.53;;;;;;;-0.58;62.08;100315.46;1774491;80;21565;-72
2023/01/30 00:12:40;;;;;;;11.12;5.15;;;;;;;-0.57;62.24;100327.94;1774588;80;21143;-73
2023/01/30 00:15:09;;;;;;;12.70;5.33;;;;;;;-0.56;62.31;100326.95;1774765;81;21539;-73
2023/01/30 00:17:39;;;;;;;10.80;4.87;;;;;;;-0.53;62.35;100321.80;1774359;81;21144;-71
2023/01/30 00:20:10;;;;;;;9.80;5.37;;;;;;;-0.53;62.27;100321.80;1774476;81;21163;-71
2023/01/30 00:22:39;;;;;;;11.73;5.20;;;;;;;-0.53;62.36;100322.66;1774672;81;21151;-70
2023/01/30 00:25:13;;;;;;;10.08;4.65;;;;;;;-0.55;62.19;100323.28;1773842;80;21527;-71
2023/01/30 00:27:43;;;;;;;9.63;4.53;;;;;;;-0.56;62.32;100309.47;1774645;81;21135;-71
2023/01/30 00:30:13;;;;;;;8.38;3.90;;;;;;;-0.57;62.35;100301.52;1774524;80;21103;-71
2023/01/30 00:32:44;;;;;;;8.18;4.42;;;;;;;-0.59;62.33;100304.34;1774592;81;21120;-72
2023/01/30 00:35:13;;;;;;;11.03;4.67;;;;;;;-0.60;62.40;100307.16;1774659;80;21120;-71
2023/01/30 00:37:43;;;;;;;8.20;4.25;;;;;;;-0.62;62.47;100307.78;1774501;79;21127;-72
2023/01/30 00:40:12;;;;;;;8.90;4.22;;;;;;;-0.61;62.61;100300.07;1774611;81;21570;-72
2023/01/30 00:48:18;;;;;;;9.10;4.28;;;;;;;-0.59;62.63;100286.85;1774593;81;21104;-72
2023/01/30 00:50:48;;;;;;;10.32;4.45;;;;;;;-0.58;62.72;100293.08;1774499;81;21072;-70
2023/01/30 00:53:19;;;;;;;9.58;4.92;;;;;;;-0.60;62.68;100293.70;1774416;81;21573;-72
2023/01/30 00:55:52;;;;;;;10.38;4.83;;;;;;;-0.62;62.72;100285.77;1701907;84;21127;-71
2023/01/30 00:58:21;;;;;;;10.95;5.03;;;;;;;-0.65;62.72;100285.53;1627845;88;21155;-73
2023/01/30 01:00:52;;;;;;;11.25;5.03;;;;;;;-0.69;62.82;100275.13;1701804;84;21571;-72
2023/01/30 01:03:21;;;;;;;11.25;5.58;;;;;;;-0.70;62.99;100268.89;1702036;84;21570;-71
2023/01/30 01:05:51;;;;;;;8.40;4.50;;;;;;;-0.68;63.06;100268.27;1628054;88;21636;-71
2023/01/30 01:08:21;;;;;;;9.98;4.60;;;;;;;-0.68;63.03;100256.16;1702028;84;21179;-72
2023/01/30 01:10:52;;;;;;;9.50;4.40;;;;;;;-0.68;63.10;100260.69;1702048;84;21590;-71
2023/01/30 01:13:21;;;;;;;30.27;6.12;;;;;;;-0.69;63.10;100261.18;1647955;84;21106;-70
2023/01/30 01:15:50;;;;;;;9.80;4.67;;;;;;;-0.69;63.18;100246.87;1774515;81;21601;-70
2023/01/30 01:18:18;;;;;;;8.68;4.47;;;;;;;-0.70;63.30;100258.13;1774579;79;21186;-70
2023/01/30 01:20:49;;;;;;;10.03;4.33;;;;;;;-0.69;63.38;100242.34;1774413;81;21576;-72
2023/01/30 01:23:17;;;;;;;9.78;4.20;;;;;;;-0.69;63.39;100246.38;1774415;81;21107;-70
2023/01/30 01:25:46;;;;;;;9.00;4.78;;;;;;;-0.70;63.38;100246.52;1774813;81;21201;-71
2023/01/30 01:28:20;;;;;;;9.28;4.03;;;;;;;-0.72;63.50;100237.72;1774647;81;21103;-70
2023/01/30 01:30:47;;;;;;;8.28;3.90;;;;;;;-0.71;63.59;100234.05;1774527;80;21606;-70
2023/01/30 01:33:16;;;;;;;32.67;6.70;;;;;;;-0.71;63.69;100230.02;1774798;80;22119;-70
2023/01/30 01:35:46;;;;;;;7.53;4.00;;;;;;;-0.71;63.77;100225.48;1774610;81;21151;-69
2023/01/30 01:38:16;;;;;;;6.53;3.52;;;;;;;-0.69;63.83;100225.36;1782859;80;21138;-70
2023/01/30 01:41:02;;;;;;;9.10;3.90;;;;;;;-0.70;63.93;100228.53;1788091;79;21499;-70
2023/01/30 01:43:35;;;;;;;7.58;3.33;;;;;;;-0.69;63.95;100234.28;1788177;80;21179;-71
2023/01/30 01:46:22;;;;;;;6.22;3.17;;;;;;;-0.70;64.10;100229.03;1788315;80;21158;-70
2023/01/30 01:48:54;;;;;;;6.83;3.23;;;;;;;-0.70;64.23;100229.03;1788748;80;21150;-69
2023/01/30 01:51:54;;;;;;;5.90;3.20;;;;;;;-0.72;64.29;100229.16;1788269;80;21131;-70
2023/01/30 01:54:34;;;;;;;6.33;3.47;;;;;;;-0.72;64.39;100228.30;1788542;80;21493;-70
2023/01/30 01:57:06;;;;;;;6.20;3.62;;;;;;;-0.73;64.61;100240.05;1775109;80;21142;-68
2023/01/30 01:59:52;;;;;;;6.83;3.15;;;;;;;-0.73;64.65;100227.45;1788100;79;21554;-69
2023/01/30 02:02:20;;;;;;;5.95;3.25;;;;;;;-0.73;64.72;100229.28;1788159;80;21154;-70
2023/01/30 02:05:05;;;;;;;7.22;3.47;;;;;;;-0.76;64.89;100235.78;1788387;80;21119;-70
2023/01/30 02:07:42;;;;;;;5.42;2.95;;;;;;;-0.77;64.95;100221.97;1788403;80;21213;-66
2023/01/30 02:10:18;;;;;;;5.97;3.60;;;;;;;-0.77;65.04;100213.05;1739734;82;21142;-70
2023/01/30 02:12:47;;;;;;;7.70;3.10;;;;;;;-0.75;65.21;100217.31;1732477;83;21108;-69
2023/01/30 02:15:17;;;;;;;6.65;3.10;;;;;;;-0.72;65.24;100217.05;1721253;82;21094;-70
2023/01/30 02:17:46;;;;;;;6.80;3.30;;;;;;;-0.69;65.29;100216.80;1732225;83;21128;-70
2023/01/30 02:20:41;;;;;;;7.55;3.25;;;;;;;-0.66;65.35;100209.80;1721531;83;21142;-69
2023/01/30 02:23:50;;;;;;;7.28;3.33;;;;;;;-0.61;65.29;100208.59;1732644;83;21168;-69
2023/01/30 02:26:42;;;;;;;8.33;3.52;;;;;;;-0.61;65.27;100199.17;1721358;83;21162;-70
2023/01/30 02:29:48;;;;;;;8.55;3.40;;;;;;;-0.59;65.26;100194.02;1732406;83;21124;-69
2023/01/30 02:32:36;;;;;;;5.62;3.17;;;;;;;-0.57;65.16;100193.40;1721094;83;21110;-69
2023/01/30 02:35:30;;;;;;;3.90;2.75;;;;;;;-0.59;64.99;100181.92;1732279;83;21644;-71
2023/01/30 02:38:35;;;;;;;7.15;3.10;;;;;;;-0.59;65.00;100183.75;1716694;83;21605;-68
2023/01/30 02:41:31;;;;;;;9.28;3.70;;;;;;;-0.59;65.01;100177.03;1774710;80;21131;-69
2023/01/30 02:44:26;;;;;;;6.75;3.37;;;;;;;-0.62;64.90;100176.80;1774370;80;21157;-69
2023/01/30 02:47:10;;;;;;;13.35;3.65;;;;;;;-0.61;64.97;100173.62;1774662;81;21186;-71
2023/01/30 02:49:53;;;;;;;6.35;3.33;;;;;;;-0.63;65.01;100160.30;1774456;80;21142;-70
2023/01/30 02:52:22;;;;;;;9.83;3.52;;;;;;;-0.61;65.02;100163.70;1774744;80;21083;-69
2023/01/30 02:54:51;;;;;;;9.08;3.72;;;;;;;-0.59;65.05;100154.16;1774487;81;21113;-70
2023/01/30 02:57:23;;;;;;;7.15;3.55;;;;;;;-0.58;64.98;100155.37;1774679;81;21124;-70
2023/01/30 02:59:58;;;;;;;7.50;3.62;;;;;;;-0.57;64.85;100153.04;1774096;81;21173;-69
2023/01/30 03:03:06;;;;;;;7.90;3.45;;;;;;;-0.56;64.85;100152.05;1774379;81;21147;-70
2023/01/30 03:05:50;;;;;;;7.85;3.90;;;;;;;-0.54;64.83;100151.42;1774034;80;21096;-70
2023/01/30 03:08:50;;;;;;;7.75;4.10;;;;;;;-0.53;64.77;100147.75;1774278;79;21190;-69
2023/01/30 03:11:23;;;;;;;7.03;3.80;;;;;;;-0.53;64.71;100145.55;1774599;81;21151;-69
2023/01/30 03:13:58;;;;;;;24.18;4.08;;;;;;;-0.52;64.68;100141.87;1774449;81;21595;-69
2023/01/30 03:16:37;;;;;;;;;;;;;;;-0.50;64.67;100138.06;1777124;81;21116;-70
2023/01/30 03:19:11;;;;;;;20.37;4.37;;;;;;;-0.50;64.58;100129.14;1774551;80;20181;-69
2023/01/30 03:21:43;;;;;;;6.72;3.35;;;;;;;-0.49;64.63;100144.30;1764211;81;21139;-71
2023/01/30 03:24:12;;;;;;;7.70;3.47;;;;;;;-0.51;64.55;100139.05;1774529;81;21139;-70
2023/01/30 03:26:55;;;;;;;21.42;4.65;;;;;;;-0.52;64.56;100126.59;1774727;81;21116;-70
2023/01/30 03:29:25;;;;;;;11.05;3.83;;;;;;;-0.52;64.51;100128.42;1774532;80;21099;-69
2023/01/30 03:31:54;;;;;;;6.72;3.47;;;;;;;-0.54;64.58;100133.94;1774411;81;21190;-69
2023/01/30 03:34:23;;;;;;;8.33;3.70;;;;;;;-0.52;64.62;100128.42;1774407;81;21120;-69
2023/01/30 03:36:52;;;;;;;6.90;3.33;;;;;;;-0.53;64.65;100124.87;1774675;81;21088;-70
2023/01/30 03:39:23;;;;;;;10.30;4.50;;;;;;;-0.53;64.69;100116.80;1785376;79;21151;-70
2023/01/30 03:41:53;;;;;;;7.28;3.52;;;;;;;-0.50;64.74;100123.27;1788178;80;21103;-69
2023/01/30 03:44:22;;;;;;;8.05;3.10;;;;;;;-0.48;64.74;100133.41;1788458;80;21123;-70
2023/01/30 03:46:51;;;;;;;5.62;3.30;;;;;;;-0.47;64.74;100129.73;1788331;80;21552;-70
2023/01/30 03:49:21;;;;;;;8.70;3.87;;;;;;;-0.47;64.70;100132.41;1788312;80;21190;-69
2023/01/30 03:51:50;;;;;;;7.87;3.45;;;;;;;-0.47;64.71;100121.65;1788315;80;21142;-69
2023/01/30 03:54:20;;;;;;;7.55;3.58;;;;;;;-0.47;64.74;100115.42;1788231;80;21562;-70
2023/01/30 03:56:50;;;;;;;30.40;4.72;;;;;;;-0.46;64.84;100105.86;1788199;80;21158;-69
2023/01/30 03:59:20;;;;;;;6.50;3.02;;;;;;;-0.46;64.83;100105.02;1788305;80;21142;-70
2023/01/30 04:01:52;;;;;;;8.28;3.62;;;;;;;-0.49;64.88;100104.78;1788294;80;21138;-69
2023/01/30 04:04:22;;;;;;;6.17;3.27;;;;;;;-0.50;65.03;100103.58;1788378;80;21126;-70
2023/01/30 04:06:52;;;;;;;8.63;3.47;;;;;;;-0.50;65.14;100099.55;1788200;80;21170;-70
2023/01/30 04:09:25;;;;;;;6.30;3.30;;;;;;;-0.50;65.26;100097.70;1788439;79;21115;-70
2023/01/30 04:11:55;;;;;;;7.35;3.35;;;;;;;-0.52;65.35;100095.64;1788237;80;21162;-70
2023/01/30 04:14:25;;;;;;;7.45;3.15;;;;;;;-0.53;65.46;100091.25;1788391;80;21138;-70
2023/01/30 04:16:56;;;;;;;9.05;4.20;;;;;;;-0.52;65.58;100098.83;1786514;79;21111;-69
2023/01/30 04:19:33;;;;;;;8.18;3.87;;;;;;;-0.56;65.68;100096.89;1786967;80;21189;-70
2023/01/30 04:22:02;;;;;;;6.80;3.85;;;;;;;-0.56;65.87;100091.52;1788553;80;21138;-69
2023/01/30 04:24:33;;;;;;;8.40;3.85;;;;;;;-0.57;65.98;100092.50;1788330;80;21181;-69
2023/01/30 04:27:02;;;;;;;9.20;3.95;;;;;;;-0.56;66.17;100099.59;1788471;80;21155;-70
2023/01/30 04:29:32;;;;;;;8.28;4.15;;;;;;;-0.54;66.23;100092.23;1788236;80;21094;-70
2023/01/30 04:32:03;;;;;;;12.05;4.85;;;;;;;-0.55;66.41;100098.59;1788159;80;21111;-70
2023/01/30 04:34:35;;;;;;;8.03;4.08;;;;;;;-0.57;66.66;100096.53;1788148;80;21150;-69
2023/01/30 04:37:04;;;;;;;11.60;4.97;;;;;;;-0.58;66.97;100091.29;1788363;80;21535;-71
2023/01/30 04:39:33;;;;;;;9.20;4.00;;;;;;;-0.63;67.23;100090.84;1788291;80;21147;-70
2023/01/30 04:42:02;;;;;;;11.93;4.67;;;;;;;-0.63;67.49;100090.84;1788228;80;21143;-70
2023/01/30 04:44:34;;;;;;;10.48;4.45;;;;;;;-0.62;67.65;100089.85;1788060;79;21605;-71
2023/01/30 04:47:04;;;;;;;9.43;4.40;;;;;;;-0.62;67.87;100092.05;1787089;80;21174;-72
2023/01/30 04:49:35;;;;;;;10.30;4.35;;;;;;;-0.62;68.07;100084.47;1788297;80;21554;-70
2023/01/30 04:52:06;;;;;;;9.75;5.20;;;;;;;-0.63;68.17;100080.93;1788145;80;21127;-71
2023/01/30 04:54:36;;;;;;;16.75;5.20;;;;;;;-0.66;68.39;100082.51;1788089;80;21138;-71
2023/01/30 04:57:06;;;;;;;10.48;5.35;;;;;;;-0.65;68.59;100078.38;1788136;80;22076;-71
2023/01/30 04:59:34;;;;;;;12.45;5.05;;;;;;;-0.66;68.72;100073.09;1788396;80;21107;-67
2023/01/30 05:02:05;;;;;;;14.80;5.92;;;;;;;-0.67;68.90;100072.73;1788370;79;21138;-72
2023/01/30 05:04:35;;;;;;;10.08;5.45;;;;;;;-0.67;69.10;100066.86;1788587;79;21118;-71
2023/01/30 05:07:03;;;;;;;9.35;5.47;;;;;;;-0.64;69.23;100059.05;1788503;80;21099;-72
2023/01/30 05:09:32;;;;;;;11.63;5.55;;;;;;;-0.61;69.31;100056.09;1788217;79;21142;-71
2023/01/30 05:12:01;;;;;;;11.73;5.42;;;;;;;-0.61;69.30;100050.70;1788537;80;21158;-71
2023/01/30 05:14:31;;;;;;;14.20;6.15;;;;;;;-0.63;69.42;100040.58;1788591;80;21083;-69
2023/01/30 05:17:00;;;;;;;37.50;6.72;;;;;;;-0.63;69.55;100040.58;1788279;80;21112;-71
2023/01/30 05:19:30;;;;;;;11.25;6.08;;;;;;;-0.61;69.62;100038.59;1788255;79;21608;-70
2023/01/30 05:21:59;;;;;;;17.05;6.05;;;;;;;-0.60;69.67;100032.23;1788516;80;21142;-71
2023/01/30 05:24:29;;;;;;;12.55;5.60;;;;;;;-0.59;69.62;100029.90;1788242;80;21612;-71
2023/01/30 05:26:59;;;;;;;10.65;5.85;;;;;;;-0.60;69.70;100026.85;1788293;80;21612;-72
2023/01/30 05:29:27;;;;;;;15.38;7.17;;;;;;;-0.57;69.73;100029.77;1788382;80;21156;-71
2023/01/30 05:31:56;;;;;;;12.35;6.55;;;;;;;-0.54;69.75;100041.60;1788307;79;21134;-72
2023/01/30 05:34:25;;;;;;;11.88;5.72;;;;;;;-0.53;69.80;100036.08;1788361;80;21562;-74
2023/01/30 05:36:54;;;;;;;13.55;6.17;;;;;;;-0.53;69.81;100033.39;1788186;80;21135;-72
2023/01/30 05:39:24;;;;;;;17.98;6.35;;;;;;;-0.54;69.79;100030.34;1788254;80;21106;-70
2023/01/30 05:41:55;;;;;;;12.18;5.97;;;;;;;-0.54;69.85;100025.45;1788291;79;21565;-72
2023/01/30 05:44:24;;;;;;;13.20;6.20;;;;;;;-0.53;69.85;100016.40;1788327;80;21139;-73
2023/01/30 05:46:53;;;;;;;15.65;6.67;;;;;;;-0.54;69.91;100011.51;1788299;80;21083;-71
2023/01/30 05:49:22;;;;;;;14.53;5.80;;;;;;;-0.54;69.97;100003.94;1788161;80;21554;-71
2023/01/30 05:51:50;;;;;;;21.70;6.85;;;;;;;-0.55;70.05;100000.39;1788518;80;21535;-71
2023/01/30 05:54:20;;;;;;;14.20;6.62;;;;;;;-0.54;70.08;100002.09;1788114;80;21107;-71
2023/01/30 05:56:50;;;;;;;13.18;6.00;;;;;;;-0.52;70.13;100001.95;1788340;80;21130;-74
2023/01/30 05:59:19;;;;;;;16.67;7.25;;;;;;;-0.53;70.08;100005.14;1788311;80;21135;-72
2023/01/30 06:01:48;;;;;;;13.43;6.42;;;;;;;-0.54;70.16;100002.59;1788472;80;21651;-72
2023/01/30 06:04:17;;;;;;;14.45;5.47;;;;;;;-0.54;70.18;100000.75;1788210;80;21547;-70
2023/01/30 06:06:49;;;;;;;32.50;8.35;;;;;;;-0.53;70.32;100002.45;1788403;80;21519;-72
2023/01/30 06:09:19;;;;;;;23.87;7.40;;;;;;;-0.48;70.36;100000.20;1771619;80;21252;-71
2023/01/30 06:11:51;;;;;;;13.32;6.03;;;;;;;-0.44;70.33;99993.55;1788226;79;21127;-72
2023/01/30 06:14:21;;;;;;;14.70;6.40;;;;;;;-0.42;70.29;99992.07;1788391;80;22025;-72
2023/01/30 06:16:51;;;;;;;17.65;5.95;;;;;;;-0.42;70.29;99993.41;1788482;79;21577;-72
2023/01/30 06:19:20;;;;;;;12.28;5.80;;;;;;;-0.42;70.37;99990.73;1788256;80;21123;-72
2023/01/30 06:21:48;;;;;;;16.75;6.78;;;;;;;-0.42;70.43;99992.92;1788355;80;21561;-72
2023/01/30 06:24:17;;;;;;;14.13;5.85;;;;;;;-0.42;70.42;99996.11;1788438;80;21158;-72
2023/01/30 06:26:46;;;;;;;13.20;5.55;;;;;;;-0.42;70.60;99992.92;1788235;80;21093;-72
2023/01/30 06:29:17;;;;;;;11.93;5.95;;;;;;;-0.42;70.66;99982.65;1787954;80;21111;-71
2023/01/30 06:31:46;;;;;;;25.88;6.10;;;;;;;-0.43;70.76;99987.18;1788345;80;21527;-73
2023/01/30 06:34:14;;;;;;;12.25;5.70;;;;;;;-0.44;70.85;99975.20;1788205;80;21107;-72
2023/01/30 06:36:44;;;;;;;11.00;6.05;;;;;;;-0.45;70.93;99970.32;1788176;80;21543;-71
2023/01/30 06:39:15;;;;;;;13.58;6.60;;;;;;;-0.44;71.09;99976.55;1788168;79;21146;-73
2023/01/30 06:41:44;;;;;;;21.25;7.20;;;;;;;-0.42;71.16;99964.66;1787770;80;21640;-72
2023/01/30 06:44:13;;;;;;;14.43;5.97;;;;;;;-0.39;71.20;99973.80;1787958;80;21527;-71
2023/01/30 06:46:44;;;;;;;29.10;8.53;;;;;;;-0.38;71.20;99970.13;1788070;80;21135;-72
2023/01/30 06:49:14;;;;;;;15.65;6.60;;;;;;;-0.35;71.19;99960.92;1788170;80;21507;-73
2023/01/30 06:51:43;;;;;;;14.43;5.87;;;;;;;-0.34;71.28;99960.78;1788179;80;21635;-73
2023/01/30 06:54:12;;;;;;;20.77;6.28;;;;;;;-0.32;71.29;99961.50;1788377;80;21099;-72
2023/01/30 06:56:41;;;;;;;11.93;6.10;;;;;;;-0.30;71.32;99955.13;1788408;80;21593;-71
2023/01/30 06:59:10;;;;;;;15.38;5.95;;;;;;;-0.31;71.37;99955.61;1788355;80;21111;-70
2023/01/30 07:01:39;;;;;;;11.33;6.03;;;;;;;-0.29;71.46;99954.13;1788442;80;21150;-73
2023/01/30 07:04:07;;;;;;;25.32;7.33;;;;;;;-0.28;71.53;99955.83;1788112;80;21123;-72
2023/01/30 07:06:37;;;;;;;16.10;7.20;;;;;;;-0.29;71.55;99957.67;1788282;80;21534;-71
2023/01/30 07:09:07;;;;;;;14.83;6.42;;;;;;;-0.27;71.66;99957.53;1788298;80;21158;-71
2023/01/30 07:11:36;;;;;;;22.25;6.95;;;;;;;-0.27;71.72;99957.53;1788158;80;21574;-71
2023/01/30 07:14:05;;;;;;;13.15;6.33;;;;;;;-0.24;71.81;99954.56;1788376;80;21083;-72
2023/01/30 07:16:35;;;;;;;13.25;6.30;;;;;;;-0.21;71.78;99952.94;1787887;79;21547;-72
2023/01/30 07:19:06;;;;;;;14.35;5.85;;;;;;;-0.22;71.78;99951.23;1788064;80;21139;-71
2023/01/30 07:21:35;;;;;;;12.33;5.53;;;;;;;-0.25;71.82;99947.48;1788375;80;21139;-71
2023/01/30 09:22:27;;;;;;;12.07;4.80;;;;;;;0.25;70.53;99779.85;1768398;77;21054;31
2023/01/30 09:24:58;;;;;;;14.30;5.67;;;;;;;0.29;70.73;99777.22;1779485;80;21150;-61
2023/01/30 09:27:27;;;;;;;9.58;5.50;;;;;;;0.29;71.04;99778.06;1780328;80;21860;-61
2023/01/30 09:29:56;;;;;;;16.93;5.92;;;;;;;0.29;71.16;99775.37;1780399;80;21187;-61
2023/01/30 09:32:26;;;;;;;14.15;4.78;;;;;;;0.24;71.19;99783.05;1784641;80;21101;-62
2023/01/30 09:34:55;;;;;;;13.40;5.30;;;;;;;0.18;71.35;99763.43;1785560;80;21120;-63
2023/01/30 09:37:25;;;;;;;11.70;5.17;;;;;;;0.15;71.46;99761.03;1802199;79;21487;-63
2023/01/30 09:39:54;;;;;;;16.45;6.00;;;;;;;0.15;71.62;99761.53;1748454;80;21605;-64
2023/01/30 09:42:51;;;;;;;15.78;5.62;;;;;;;0.14;72.23;99757.98;1751318;82;21187;-62
2023/01/30 09:45:54;;;;;;;12.80;4.95;;;;;;;0.13;72.03;99754.94;1741301;82;21165;-63
2023/01/30 09:48:33;;;;;;;12.55;6.20;;;;;;;0.08;72.13;99751.84;1736318;81;21129;-63
2023/01/30 09:51:09;;;;;;;12.65;5.47;;;;;;;0.04;72.17;99748.24;1760816;80;21152;-65
2023/01/30 09:54:06;;;;;;;10.85;4.92;;;;;;;0.03;73.08;99741.16;1740259;81;21125;-62
2023/01/30 09:56:35;;;;;;;13.10;5.20;;;;;;;0.07;73.97;99736.68;1733942;81;21172;-64
2023/01/30 09:59:05;;;;;;;16.77;6.08;;;;;;;0.11;73.09;99738.08;1728645;82;21863;-62
2023/01/30 10:01:48;;;;;;;12.00;5.00;;;;;;;0.09;72.58;99733.34;1728706;83;21627;-65
2023/01/30 10:04:33;;;;;;;11.80;6.30;;;;;;;0.05;72.22;99725.20;1728710;83;21219;-62
2023/01/30 10:07:31;;;;;;;14.68;6.90;;;;;;;-0.02;72.15;99722.22;1728644;83;21544;-62
2023/01/30 13:16:31;;;;;;;21.57;8.10;;;;;;;0.33;74.22;99417.60;1824641;77;25284;-65
2023/01/30 13:19:29;;;;;;;20.23;7.30;;;;;;;0.30;74.13;99412.52;1778883;79;21188;-65
2023/01/30 13:22:29;;;;;;;19.00;7.37;;;;;;;0.31;74.10;99406.13;1786121;80;22199;-65
2023/01/30 13:25:13;;;;;;;15.53;7.97;;;;;;;0.35;74.07;99396.73;1777150;80;21125;-67
2023/01/30 13:27:46;;;;;;;12.13;6.72;;;;;;;0.37;74.03;99401.47;1757406;82;21171;-66
2023/01/30 13:30:16;;;;;;;14.83;6.83;;;;;;;0.41;73.96;99388.52;1757097;81;21176;-65
2023/01/30 13:32:48;;;;;;;16.75;6.62;;;;;;;0.44;73.88;99381.47;1758005;80;21120;-67
2023/01/30 13:35:22;;;;;;;14.38;7.05;;;;;;;0.46;73.65;99377.62;1788434;80;21170;-66
2023/01/30 13:37:51;;;;;;;13.90;6.45;;;;;;;0.48;73.56;99378.80;1788497;80;21510;-66
2023/01/30 13:40:26;;;;;;;18.20;7.80;;;;;;;0.52;73.60;99370.75;1788315;79;21131;-66
2023/01/30 13:43:06;;;;;;;14.73;7.15;;;;;;;0.56;73.50;99378.36;1788404;80;21623;-65
2023/01/30 13:45:37;;;;;;;17.00;7.10;;;;;;;0.59;73.34;99363.72;1788844;80;21494;-66
2023/01/30 13:48:44;;;;;;;14.13;7.50;;;;;;;0.60;73.20;99366.25;1788482;80;21290;-65
2023/01/30 13:51:23;;;;;;;15.80;7.58;;;;;;;0.61;73.19;99352.27;1763893;80;21559;-66
2023/01/30 13:54:28;;;;;;;14.47;6.92;;;;;;;0.63;73.11;99363.73;1746874;82;21585;-66
2023/01/30 13:57:29;;;;;;;13.35;6.58;;;;;;;0.66;73.08;99362.10;1746929;82;21617;-65
2023/01/30 14:00:32;;;;;;;12.07;6.47;;;;;;;0.68;73.03;99346.61;1746801;82;21169;-65
2023/01/30 14:03:10;;;;;;;14.30;7.03;;;;;;;0.69;72.95;99336.17;1641554;87;21597;-65
2023/01/30 14:06:03;;;;;;;12.07;6.58;;;;;;;0.67;72.95;99346.27;1630102;88;21118;-66
2023/01/30 14:08:49;;;;;;;14.03;7.00;;;;;;;0.66;73.01;99349.98;1612255;89;21618;-67
2023/01/30 14:11:38;;;;;;;12.88;6.70;;;;;;;0.66;73.08;99332.45;1612562;89;21618;-66
2023/01/30 14:14:32;;;;;;;18.20;7.65;;;;;;;0.67;73.11;99339.53;1612253;89;21639;-65
2023/01/30 14:17:11;;;;;;;15.60;7.47;;;;;;;0.68;73.17;99334.48;1579842;89;21209;-65
2023/01/30 14:19:45;;;;;;;16.35;7.83;;;;;;;0.69;73.08;99330.78;1612567;89;21608;-65
2023/01/30 14:22:22;;;;;;;18.27;8.38;;;;;;;0.71;73.13;99336.86;1612371;89;21152;-66
2023/01/30 14:25:26;;;;;;;12.60;5.23;;;;;;;0.71;73.10;99330.13;1612387;88;21196;-66
2023/01/30 14:28:06;;;;;;;13.05;6.70;;;;;;;0.72;73.08;99319.68;1506087;95;21693;-65
2023/01/30 14:30:49;;;;;;;18.25;8.48;;;;;;;0.73;73.09;99325.92;1555158;92;21610;-67
2023/01/30 14:33:27;;;;;;;11.97;6.10;;;;;;;0.74;73.51;99323.06;1612811;87;21628;-64
2023/01/30 14:36:26;;;;;;;12.47;6.70;;;;;;;0.77;73.39;99324.08;1640546;87;21151;-64
2023/01/30 14:39:00;;;;;;;16.17;6.40;;;;;;;0.78;73.21;99325.77;1640657;87;21194;-66
2023/01/30 14:41:29;;;;;;;15.65;6.00;;;;;;;0.79;73.14;99319.88;1623623;87;21482;-65
2023/01/30 14:43:59;;;;;;;12.23;6.17;;;;;;;0.77;73.08;99319.20;1640619;87;21198;-63
2023/01/30 14:46:33;;;;;;;20.40;8.00;;;;;;;0.73;73.11;99324.06;1640534;87;21675;-66
2023/01/30 14:49:07;;;;;;;16.52;6.75;;;;;;;0.71;73.19;99320.69;1640662;87;21134;-65
2023/01/30 14:51:46;;;;;;;13.75;7.70;;;;;;;0.69;73.31;99309.22;1639922;87;21158;-67
2023/01/30 14:54:24;;;;;;;19.07;6.60;;;;;;;0.69;73.37;99313.27;1640521;87;21162;-66
2023/01/30 14:57:04;;;;;;;13.48;6.80;;;;;;;0.70;73.37;99301.47;1637895;87;21897;-66
2023/01/30 14:59:37;;;;;;;11.88;6.40;;;;;;;0.70;73.44;99302.83;1640623;87;21165;-66
2023/01/30 15:02:20;;;;;;;14.00;6.17;;;;;;;0.70;73.45;99305.52;1640489;87;21209;-65
2023/01/30 15:04:52;;;;;;;11.75;5.72;;;;;;;0.70;73.49;99296.08;1640793;87;21217;-66
2023/01/30 15:08:03;;;;;;;15.65;7.15;;;;;;;0.70;73.54;99302.83;1640591;87;21668;-66
2023/01/30 15:17:00;;;;;;;14.03;6.30;;;;;;;0.72;73.72;99291.87;1829938;77;20136;-67
2023/01/30 15:19:50;;;;;;;10.95;5.47;;;;;;;0.66;73.70;99291.18;1724077;83;21117;-69
2023/01/30 15:22:36;;;;;;;12.13;6.22;;;;;;;0.63;73.75;99288.27;1739998;82;21581;-65
2023/01/30 15:25:37;;;;;;;11.18;5.67;;;;;;;0.64;73.80;99288.61;1723208;83;21131;-65
2023/01/30 15:28:17;;;;;;;26.45;8.78;;;;;;;0.62;73.75;99285.23;1722498;83;21181;-70
2023/01/30 15:31:07;;;;;;;11.25;5.80;;;;;;;0.62;73.90;99291.97;1707347;82;21132;-65
2023/01/30 15:33:47;;;;;;;11.00;6.40;;;;;;;0.61;74.04;99294.33;1722591;83;21184;-65
2023/01/30 15:36:30;;;;;;;12.63;6.30;;;;;;;0.63;73.94;99297.70;1722621;83;21143;-66
2023/01/30 15:39:03;;;;;;;17.35;7.50;;;;;;;0.63;73.92;99297.70;1722600;83;21154;-65
2023/01/30 15:41:38;;;;;;;12.07;5.75;;;;;;;0.65;73.93;99306.50;1720512;83;21131;-66
2023/01/30 15:44:42;;;;;;;11.80;5.70;;;;;;;0.69;73.88;99306.52;1722781;83;21130;-65
2023/01/30 15:47:38;;;;;;;12.13;5.78;;;;;;;0.70;73.77;99300.13;1693617;83;21163;-64
2023/01/30 15:50:09;;;;;;;11.37;5.33;;;;;;;0.70;73.61;99294.73;1722446;83;21217;-66
2023/01/30 15:52:45;;;;;;;14.13;5.35;;;;;;;0.69;73.45;99290.35;1755159;82;21130;-65
2023/01/30 15:55:22;;;;;;;13.10;6.28;;;;;;;0.70;73.45;99284.45;1722671;83;21139;-64
2023/01/30 15:57:58;;;;;;;14.15;5.50;;;;;;;0.70;73.36;99284.45;1722608;83;21202;-65
2023/01/30 16:00:32;;;;;;;10.35;5.28;;;;;;;0.68;73.30;99290.52;1722461;83;21190;-66
2023/01/30 16:03:03;;;;;;;17.60;6.20;;;;;;;0.66;73.28;99285.28;1740006;82;21202;-65
2023/01/30 16:05:32;;;;;;;8.85;4.95;;;;;;;0.66;73.25;99292.02;1723013;83;21130;-66
2023/01/30 16:08:13;;;;;;;8.75;4.75;;;;;;;0.69;73.11;99280.08;1717925;82;21112;-65
2023/01/30 16:10:46;;;;;;;8.15;5.03;;;;;;;0.68;72.98;99287.31;1695624;83;21191;-65
2023/01/30 16:13:15;;;;;;;9.25;5.10;;;;;;;0.68;72.94;99289.16;1702592;82;21094;-65
2023/01/30 16:15:50;;;;;;;13.25;6.10;;;;;;;0.67;72.95;99287.48;1714395;83;21123;-66
2023/01/30 16:18:41;;;;;;;12.37;5.62;;;;;;;0.67;72.88;99284.28;1744362;82;21139;-64
2023/01/30 16:21:23;;;;;;;13.03;5.85;;;;;;;0.67;72.77;99287.48;1743972;82;21127;-64
2023/01/30 16:24:02;;;;;;;13.38;5.92;;;;;;;0.67;72.86;99286.13;1744495;81;21585;-65
2023/01/30 16:26:34;;;;;;;11.55;5.75;;;;;;;0.66;72.91;99287.98;1780134;80;21154;-66
2023/01/30 16:29:06;;;;;;;21.33;6.05;;;;;;;0.68;72.86;99284.63;1779694;80;21074;-65
2023/01/30 16:31:37;;;;;;;10.43;5.83;;;;;;;0.68;72.80;99285.13;1780025;80;21106;-65
2023/01/30 16:34:28;;;;;;;15.45;5.83;;;;;;;0.66;72.80;99277.70;1779875;80;21333;-65
2023/01/30 16:37:21;;;;;;;12.10;5.67;;;;;;;0.62;72.86;99271.76;1771109;80;21106;-65
2023/01/30 16:40:10;;;;;;;12.10;5.37;;;;;;;0.61;72.94;99272.27;1775570;80;21182;-65
2023/01/30 16:42:39;;;;;;;8.75;5.28;;;;;;;0.63;73.14;99264.02;1774381;81;21151;-65
2023/01/30 16:45:38;;;;;;;11.43;5.30;;;;;;;0.67;73.02;99274.00;1774385;80;21557;-64
2023/01/30 16:48:26;;;;;;;13.08;5.80;;;;;;;0.66;73.50;99273.16;1774512;81;21554;-65
2023/01/30 16:51:03;;;;;;;11.70;5.25;;;;;;;0.67;73.31;99264.06;1770199;80;21115;-65
2023/01/30 16:53:34;;;;;;;13.32;5.37;;;;;;;0.68;73.22;99263.56;1774544;81;21143;-65
2023/01/30 16:56:08;;;;;;;9.38;5.03;;;;;;;0.68;73.11;99264.91;1774379;81;21105;-66
2023/01/30 16:58:37;;;;;;;12.55;5.35;;;;;;;0.68;73.05;99268.45;1774424;81;21602;-65
2023/01/30 17:01:07;;;;;;;12.25;5.62;;;;;;;0.67;72.98;99260.52;1774483;81;21107;-66
2023/01/30 17:03:43;;;;;;;11.75;5.35;;;;;;;0.64;73.03;99275.14;1774367;79;21167;-66
2023/01/30 17:06:36;;;;;;;14.98;5.97;;;;;;;0.63;73.08;99262.67;1774425;81;21154;-65
2023/01/30 17:09:27;;;;;;;11.25;6.42;;;;;;;0.62;72.97;99268.56;1774211;80;21163;-65
2023/01/30 17:12:01;;;;;;;11.43;5.35;;;;;;;0.60;73.06;99258.95;1774480;80;21116;-65
2023/01/30 17:14:33;;;;;;;11.75;5.25;;;;;;;0.57;73.03;99253.38;1774701;81;21096;-64
2023/01/30 17:17:07;;;;;;;10.32;4.72;;;;;;;0.56;73.17;99257.59;1788350;80;21143;-64
2023/01/30 17:19:36;;;;;;;11.03;4.90;;;;;;;0.58;73.19;99256.92;1788040;79;21222;-63
